createdAt,value
2018-06-30T00:00:06.315Z,3.50
2018-06-30T00:02:35.407Z,3.73
2018-06-30T00:05:15.044Z,3.63
2018-06-30T00:07:44.868Z,3.70
2018-06-30T00:10:16.390Z,3.67
2018-06-30T00:12:45.418Z,3.50
2018-06-30T00:15:14.523Z,3.40
2018-06-30T00:17:43.674Z,3.67
2018-06-30T00:20:12.899Z,3.67
2018-06-30T00:22:41.917Z,3.57
2018-06-30T00:25:11.455Z,3.50
2018-06-30T00:27:40.508Z,3.87
2018-06-30T00:30:09.492Z,4.17
2018-06-30T00:32:38.595Z,3.70
2018-06-30T00:35:08.562Z,4.00
2018-06-30T00:37:37.735Z,3.73
2018-06-30T00:40:07.001Z,4.00
2018-06-30T00:42:36.123Z,3.90
2018-06-30T00:45:08.637Z,3.90
2018-06-30T00:47:37.631Z,4.00
2018-06-30T00:50:06.682Z,3.47
2018-06-30T00:52:35.635Z,3.60
2018-06-30T00:55:07.931Z,4.00
2018-06-30T00:57:36.864Z,3.93
2018-06-30T01:00:05.835Z,4.13
2018-06-30T01:02:34.902Z,4.20
2018-06-30T01:05:07.844Z,3.97
2018-06-30T01:07:37.003Z,3.87
2018-06-30T01:10:06.388Z,4.37
2018-06-30T01:12:35.596Z,4.00
2018-06-30T01:15:08.587Z,4.10
2018-06-30T01:17:37.758Z,4.50
2018-06-30T01:20:07.068Z,4.20
2018-06-30T01:22:36.199Z,4.43
2018-06-30T01:25:08.486Z,3.77
2018-06-30T01:27:37.722Z,4.30
2018-06-30T01:30:09.067Z,4.23
2018-06-30T01:32:38.578Z,4.17
2018-06-30T01:35:11.924Z,4.67
2018-06-30T01:37:41.980Z,4.20
2018-06-30T01:40:11.223Z,4.60
2018-06-30T01:42:40.194Z,4.73
2018-06-30T01:45:13.931Z,4.83
2018-06-30T01:47:43.989Z,4.33
2018-06-30T01:50:13.790Z,4.30
2018-06-30T01:52:43.586Z,4.60
2018-06-30T01:55:15.300Z,4.33
2018-06-30T01:57:45.013Z,4.43
2018-06-30T02:00:14.199Z,4.53
2018-06-30T02:02:43.323Z,4.70
2018-06-30T02:05:14.655Z,4.60
2018-06-30T02:07:44.443Z,4.53
2018-06-30T02:10:14.271Z,4.70
2018-06-30T02:12:43.382Z,4.67
2018-06-30T02:15:15.579Z,4.60
2018-06-30T02:17:45.622Z,4.67
2018-06-30T02:20:14.728Z,4.27
2018-06-30T02:22:43.874Z,4.83
2018-06-30T02:25:16.082Z,4.73
2018-06-30T02:27:45.334Z,4.77
2018-06-30T02:30:14.407Z,4.90
2018-06-30T02:32:43.519Z,5.00
2018-06-30T02:35:16.098Z,4.63
2018-06-30T02:37:45.536Z,4.53
2018-06-30T02:40:21.185Z,4.50
2018-06-30T02:42:50.571Z,4.50
2018-06-30T02:45:20.932Z,4.80
2018-06-30T02:47:49.878Z,4.63
2018-06-30T02:50:19.101Z,4.70
2018-06-30T02:52:48.356Z,4.90
2018-06-30T02:55:18.228Z,4.60
2018-06-30T02:57:47.739Z,4.87
2018-06-30T03:00:17.185Z,4.60
2018-06-30T03:02:46.462Z,4.67
2018-06-30T03:05:18.345Z,4.60
2018-06-30T03:07:48.602Z,4.77
2018-06-30T10:42:42.554Z,4.03
2018-06-30T10:45:11.567Z,4.08
2018-06-30T10:47:40.779Z,4.25
2018-06-30T10:50:09.994Z,4.12
2018-06-30T10:52:39.022Z,4.40
2018-06-30T10:55:08.186Z,4.60
2018-06-30T10:57:37.151Z,4.40
2018-06-30T11:00:08.204Z,4.43
2018-06-30T11:02:37.216Z,4.70
2018-06-30T11:05:06.521Z,5.40
2018-06-30T11:07:35.429Z,4.63
2018-06-30T11:10:07.888Z,7.27
2018-06-30T11:12:37.142Z,4.20
2018-06-30T11:15:06.617Z,4.97
2018-06-30T11:17:35.644Z,4.17
2018-06-30T11:20:07.452Z,4.27
2018-06-30T11:22:36.666Z,5.03
2018-06-30T11:25:06.809Z,7.43
2018-06-30T11:27:35.859Z,4.33
2018-06-30T11:30:08.844Z,4.83
2018-06-30T11:32:37.939Z,4.73
2018-06-30T11:35:07.363Z,4.60
2018-06-30T11:37:36.438Z,4.17
2018-06-30T11:40:07.507Z,4.87
2018-06-30T11:42:36.576Z,4.00
2018-06-30T11:45:06.192Z,4.10
2018-06-30T11:47:35.590Z,7.20
2018-06-30T11:50:08.543Z,5.20
2018-06-30T11:52:37.526Z,4.40
2018-06-30T11:55:06.790Z,4.70
2018-06-30T11:57:35.705Z,4.43
2018-06-30T12:00:09.392Z,4.47
2018-06-30T12:02:38.477Z,4.53
2018-06-30T12:05:08.297Z,4.50
2018-06-30T12:07:37.483Z,4.60
2018-06-30T12:10:09.378Z,4.27
2018-06-30T12:12:38.417Z,4.10
2018-06-30T12:15:07.417Z,4.20
2018-06-30T12:17:36.611Z,4.20
2018-06-30T12:20:08.128Z,4.40
2018-06-30T12:22:38.118Z,4.10
2018-06-30T12:25:07.172Z,4.80
2018-06-30T12:27:36.076Z,4.47
2018-06-30T12:30:08.623Z,3.93
2018-06-30T12:32:37.588Z,3.90
2018-06-30T12:35:07.191Z,3.80
2018-06-30T12:37:36.129Z,3.70
2018-06-30T12:40:08.682Z,4.07
2018-06-30T12:42:37.955Z,4.00
2018-06-30T12:45:07.037Z,4.20
2018-06-30T12:47:36.115Z,3.70
2018-06-30T12:50:08.635Z,3.90
2018-06-30T12:52:37.556Z,3.80
2018-06-30T12:55:06.746Z,4.10
2018-06-30T12:57:35.689Z,4.30
2018-06-30T13:00:08.488Z,4.43
2018-06-30T13:02:37.460Z,4.00
2018-06-30T13:05:06.555Z,3.80
2018-06-30T13:07:35.654Z,4.13
2018-06-30T13:10:08.115Z,4.03
2018-06-30T13:12:37.392Z,3.93
2018-06-30T13:15:07.114Z,4.60
2018-06-30T13:17:36.175Z,4.20
2018-06-30T13:20:08.586Z,3.57
2018-06-30T13:22:37.516Z,3.97
2018-06-30T13:25:06.516Z,3.83
2018-06-30T13:27:35.520Z,3.90
2018-06-30T13:30:08.078Z,3.80
2018-06-30T13:32:37.027Z,4.40
2018-06-30T13:35:06.255Z,3.90
2018-06-30T13:37:35.423Z,3.60
2018-06-30T13:40:13.149Z,3.70
2018-06-30T13:42:42.473Z,3.87
2018-06-30T13:45:11.789Z,3.53
2018-06-30T13:47:40.747Z,3.60
2018-06-30T13:50:10.363Z,3.77
2018-06-30T13:52:39.410Z,4.17
2018-06-30T13:55:08.389Z,4.10
2018-06-30T13:57:37.378Z,3.53
2018-06-30T14:00:09.446Z,3.50
2018-06-30T14:02:38.393Z,3.63
2018-06-30T14:05:07.394Z,3.57
2018-06-30T14:07:36.341Z,3.77
2018-06-30T14:10:09.396Z,3.40
2018-06-30T14:12:38.645Z,3.87
2018-06-30T14:15:09.516Z,4.17
2018-06-30T14:17:39.147Z,10.67
2018-06-30T14:20:09.955Z,6.00
2018-06-30T14:22:39.664Z,4.00
2018-06-30T14:25:08.984Z,6.60
2018-06-30T14:27:38.290Z,5.00
2018-06-30T14:30:10.421Z,6.73
2018-06-30T14:32:40.263Z,6.87
2018-06-30T14:35:10.806Z,9.90
2018-06-30T14:37:40.561Z,9.67
2018-06-30T14:40:10.346Z,4.03
2018-06-30T14:42:39.683Z,3.60
2018-06-30T14:45:08.881Z,3.90
2018-06-30T14:47:37.892Z,5.87
2018-06-30T14:50:07.705Z,7.20
2018-06-30T14:52:36.961Z,4.27
2018-06-30T14:55:06.935Z,5.97
2018-06-30T14:57:36.175Z,5.40
2018-06-30T15:00:09.460Z,4.77
2018-06-30T15:02:40.028Z,5.13
2018-06-30T15:05:11.099Z,6.37
2018-06-30T15:07:40.719Z,4.00
2018-06-30T15:10:10.419Z,3.63
2018-06-30T15:12:39.616Z,4.70
2018-06-30T15:15:09.362Z,4.10
2018-06-30T15:17:38.486Z,5.60
2018-06-30T15:20:07.927Z,4.40
2018-06-30T15:22:37.609Z,3.77
2018-06-30T15:25:07.542Z,3.87
2018-06-30T15:27:36.795Z,4.10
2018-06-30T15:30:07.082Z,4.30
2018-06-30T15:32:36.063Z,4.70
2018-06-30T15:35:05.414Z,3.40
2018-06-30T15:37:34.648Z,3.30
2018-06-30T15:40:09.300Z,3.20
2018-06-30T15:42:38.509Z,4.30
2018-06-30T15:45:09.480Z,3.40
2018-06-30T15:47:39.102Z,3.70
2018-06-30T15:50:08.447Z,4.17
2018-06-30T15:52:37.665Z,3.57
2018-06-30T15:55:08.136Z,3.30
2018-06-30T15:57:37.138Z,3.40
2018-06-30T16:00:09.510Z,2.93
2018-06-30T16:02:39.022Z,3.13
2018-06-30T16:05:08.324Z,3.17
2018-06-30T16:07:37.606Z,3.00
2018-06-30T16:10:08.542Z,2.87
2018-06-30T16:12:37.720Z,3.20
2018-06-30T16:15:07.256Z,2.73
2018-06-30T16:17:36.247Z,2.87
2018-06-30T16:20:07.082Z,3.07
2018-06-30T16:22:36.064Z,3.20
2018-06-30T16:25:06.601Z,3.07
2018-06-30T16:27:35.858Z,3.83
2018-06-30T16:30:09.336Z,2.47
2018-06-30T16:32:38.434Z,2.73
2018-06-30T16:35:07.546Z,2.80
2018-06-30T16:37:36.663Z,2.70
2018-06-30T16:40:07.076Z,2.93
2018-06-30T16:42:36.652Z,2.70
2018-06-30T16:45:06.228Z,2.70
2018-06-30T16:47:35.688Z,3.10
2018-06-30T16:50:08.551Z,2.60
2018-06-30T16:52:38.750Z,3.03
2018-06-30T16:55:08.571Z,2.70
2018-06-30T16:57:37.539Z,2.90
2018-06-30T17:00:09.076Z,3.10
2018-06-30T17:02:38.045Z,3.30
2018-06-30T17:05:07.160Z,2.83
2018-06-30T17:07:36.602Z,2.47
2018-06-30T17:10:09.010Z,3.10
2018-06-30T17:12:38.071Z,2.90
2018-06-30T17:15:07.148Z,2.60
2018-06-30T17:17:36.147Z,2.80
2018-06-30T17:20:09.259Z,2.40
2018-06-30T17:22:38.307Z,2.77
2018-06-30T17:25:07.393Z,2.60
2018-06-30T17:27:36.343Z,2.50
2018-06-30T17:30:08.992Z,2.20
2018-06-30T17:32:38.106Z,2.23
2018-06-30T17:35:07.111Z,1.87
2018-06-30T17:37:36.106Z,2.53
2018-06-30T17:40:08.747Z,1.87
2018-06-30T17:42:38.260Z,2.30
2018-06-30T17:45:07.686Z,1.70
2018-06-30T17:47:36.796Z,2.10
2018-06-30T17:50:09.184Z,1.87
2018-06-30T17:52:38.329Z,2.23
2018-06-30T17:55:08.111Z,1.70
2018-06-30T17:57:37.081Z,1.83
2018-06-30T18:00:09.746Z,1.40
2018-06-30T18:02:38.977Z,1.60
2018-06-30T18:05:08.076Z,1.67
2018-06-30T18:07:37.194Z,1.60
2018-06-30T18:10:07.960Z,1.50
2018-06-30T18:12:37.111Z,1.30
2018-06-30T18:15:06.812Z,1.27
2018-06-30T18:17:36.950Z,1.43
2018-06-30T18:20:07.355Z,1.40
2018-06-30T18:22:36.310Z,1.40
2018-06-30T18:25:05.324Z,2.60
2018-06-30T18:27:34.266Z,1.20
2018-06-30T18:30:07.143Z,1.60
2018-06-30T18:32:36.233Z,1.43
2018-06-30T18:35:06.803Z,1.30
2018-06-30T18:37:36.353Z,1.10
2018-06-30T18:40:07.459Z,1.40
2018-06-30T18:42:38.128Z,1.13
2018-06-30T18:45:07.197Z,0.83
2018-06-30T18:47:36.166Z,0.93
2018-06-30T18:50:07.907Z,1.40
2018-06-30T18:52:36.982Z,1.10
2018-06-30T18:55:06.202Z,1.00
2018-06-30T18:57:35.185Z,1.10
2018-06-30T19:00:08.668Z,1.00
2018-06-30T19:02:37.675Z,1.00
2018-06-30T19:05:06.924Z,1.10
2018-06-30T19:07:36.020Z,1.30
2018-06-30T19:10:07.904Z,2.43
2018-06-30T19:12:38.142Z,1.07
2018-06-30T19:15:07.171Z,0.97
2018-06-30T19:17:36.783Z,1.10
2018-06-30T19:20:07.697Z,1.30
2018-06-30T19:22:36.730Z,1.10
2018-06-30T19:25:05.721Z,1.33
2018-06-30T19:27:34.715Z,1.10
2018-06-30T19:30:06.836Z,1.00
2018-06-30T19:32:35.789Z,0.80
2018-06-30T19:35:04.771Z,1.10
2018-06-30T19:37:33.733Z,0.90
2018-06-30T19:40:05.848Z,1.00
2018-06-30T19:42:34.986Z,1.10
2018-06-30T19:45:04.894Z,3.13
2018-06-30T19:47:34.172Z,1.50
2018-06-30T19:50:09.717Z,1.37
2018-06-30T19:52:39.311Z,1.50
2018-06-30T19:55:08.403Z,1.23
2018-06-30T19:57:37.902Z,0.90
2018-06-30T20:00:07.724Z,1.30
2018-06-30T20:02:37.030Z,0.87
2018-06-30T20:05:06.443Z,0.97
2018-06-30T20:07:40.694Z,0.80
2018-06-30T20:10:10.136Z,0.70
2018-06-30T20:12:39.158Z,0.90
2018-06-30T20:15:08.115Z,1.10
2018-06-30T20:17:37.165Z,1.00
2018-06-30T20:20:07.592Z,1.30
2018-06-30T20:22:37.119Z,2.10
2018-06-30T20:25:06.455Z,1.20
2018-06-30T20:27:35.417Z,0.90
2018-06-30T20:30:08.099Z,1.60
2018-06-30T20:32:37.324Z,1.77
2018-06-30T20:35:06.722Z,1.60
2018-06-30T20:37:35.922Z,1.23
2018-06-30T20:40:07.554Z,1.20
2018-06-30T20:42:36.742Z,1.00
2018-06-30T20:45:06.150Z,0.60
2018-06-30T20:47:35.084Z,0.70
2018-06-30T20:50:07.596Z,0.90
2018-06-30T20:52:36.563Z,1.13
2018-06-30T20:55:05.669Z,0.70
2018-06-30T20:57:34.719Z,0.70
2018-06-30T21:00:07.592Z,0.80
2018-06-30T21:02:36.746Z,0.93
2018-06-30T21:05:06.578Z,1.00
2018-06-30T21:07:35.633Z,1.17
2018-06-30T21:10:08.300Z,1.03
2018-06-30T21:12:37.355Z,1.40
2018-06-30T21:15:06.391Z,0.97
2018-06-30T21:17:35.723Z,0.87
2018-06-30T21:20:08.415Z,1.07
2018-06-30T21:22:38.260Z,1.17
2018-06-30T21:25:07.418Z,0.70
2018-06-30T21:27:37.290Z,0.80
2018-06-30T21:30:07.470Z,1.20
2018-06-30T21:32:36.525Z,0.80
2018-06-30T21:35:05.519Z,1.00
2018-06-30T21:37:34.528Z,0.90
2018-06-30T21:40:06.719Z,1.30
2018-06-30T21:42:35.717Z,1.10
2018-06-30T21:45:04.822Z,1.10
2018-06-30T21:47:33.899Z,0.63
2018-06-30T21:50:06.075Z,1.10
2018-06-30T21:52:35.278Z,1.00
2018-06-30T21:55:04.654Z,0.80
2018-06-30T21:57:33.891Z,0.93
2018-06-30T22:00:07.748Z,1.33
2018-06-30T22:02:37.596Z,1.20
2018-06-30T22:05:06.857Z,1.07
2018-06-30T22:07:36.386Z,1.10
2018-06-30T22:10:09.006Z,1.20
2018-06-30T22:12:38.109Z,1.07
2018-06-30T22:15:07.388Z,1.20
2018-06-30T22:17:36.628Z,1.40
2018-06-30T22:20:09.505Z,1.13
2018-06-30T22:22:38.766Z,1.27
2018-06-30T22:25:07.839Z,1.60
2018-06-30T22:27:36.841Z,1.50
2018-06-30T22:30:07.873Z,1.33
2018-06-30T22:32:37.793Z,1.53
2018-06-30T22:35:07.059Z,1.53
2018-06-30T22:37:36.192Z,1.60
2018-06-30T22:40:15.401Z,1.90
2018-06-30T22:42:45.518Z,2.03
2018-06-30T22:45:15.078Z,2.20
2018-06-30T22:47:44.387Z,2.40
2018-06-30T22:50:14.432Z,2.30
2018-06-30T22:52:43.418Z,2.33
2018-06-30T22:55:12.535Z,2.70
2018-06-30T22:57:41.495Z,3.17
2018-06-30T23:00:11.771Z,2.70
2018-06-30T23:02:40.867Z,2.57
2018-06-30T23:05:09.899Z,2.80
2018-06-30T23:07:38.835Z,2.47
2018-06-30T23:10:09.074Z,2.60
2018-06-30T23:12:38.354Z,2.70
2018-06-30T23:15:08.053Z,2.63
2018-06-30T23:17:37.170Z,3.00
2018-06-30T23:20:09.506Z,2.87
2018-06-30T23:22:50.455Z,2.90
2018-06-30T23:25:19.399Z,2.53
2018-06-30T23:27:48.331Z,2.63
2018-06-30T23:30:17.385Z,2.50
2018-06-30T23:32:46.835Z,2.43
2018-06-30T23:35:15.767Z,2.57
2018-06-30T23:37:44.754Z,2.60
2018-06-30T23:40:14.012Z,2.20
2018-06-30T23:42:43.384Z,2.67
2018-06-30T23:45:13.397Z,2.40
2018-06-30T23:47:42.409Z,2.40
2018-06-30T23:50:11.392Z,2.70
2018-06-30T23:52:40.330Z,2.37
2018-06-30T23:55:09.827Z,2.17
2018-06-30T23:57:39.373Z,2.50
